createdAt,value
2022-08-28T00:00:36.142Z,99.90
2022-08-28T00:03:03.033Z,99.90
2022-08-28T00:05:33.282Z,99.90
2022-08-28T00:08:00.530Z,99.90
2022-08-28T00:10:28.621Z,99.90
2022-08-28T00:12:58.162Z,99.90
2022-08-28T00:15:30.751Z,99.90
2022-08-28T00:17:58.520Z,99.90
2022-08-28T00:20:26.723Z,99.90
2022-08-28T00:22:55.488Z,99.90
2022-08-28T00:25:26.226Z,99.90
2022-08-28T00:27:57.351Z,99.90
2022-08-28T00:30:31.827Z,99.90
2022-08-28T00:33:01.716Z,99.90
2022-08-28T00:35:28.474Z,99.90
2022-08-28T00:37:57.440Z,99.90
2022-08-28T00:40:32.391Z,99.90
2022-08-28T00:43:02.340Z,99.90
2022-08-28T00:45:30.354Z,99.90
2022-08-28T00:47:57.253Z,99.90
2022-08-28T00:50:28.067Z,99.90
2022-08-28T00:52:58.989Z,99.90
2022-08-28T00:55:28.305Z,99.90
2022-08-28T00:57:59.131Z,99.90
2022-08-28T01:00:34.126Z,99.90
2022-08-28T01:03:01.687Z,99.90
2022-08-28T01:05:29.638Z,99.90
2022-08-28T01:07:58.667Z,99.90
2022-08-28T01:10:28.194Z,99.90
2022-08-28T01:12:57.160Z,99.90
2022-08-28T01:15:31.836Z,99.90
2022-08-28T01:18:07.342Z,99.90
2022-08-28T01:20:37.846Z,99.90
2022-08-28T01:23:17.680Z,99.90
2022-08-28T01:25:44.562Z,99.90
2022-08-28T01:28:14.283Z,99.90
2022-08-28T01:30:44.502Z,99.90
2022-08-28T01:33:12.012Z,99.90
2022-08-28T01:35:43.262Z,99.90
2022-08-28T01:38:10.136Z,99.90
2022-08-28T01:40:40.488Z,99.90
2022-08-28T01:43:16.217Z,99.90
2022-08-28T01:45:46.502Z,99.90
2022-08-28T01:48:15.607Z,99.90
2022-08-28T01:50:43.442Z,99.90
2022-08-28T01:53:14.556Z,99.90
2022-08-28T01:55:42.933Z,99.90
2022-08-28T01:58:10.717Z,99.90
2022-08-28T02:00:38.732Z,99.90
2022-08-28T02:03:06.961Z,99.90
2022-08-28T02:05:34.568Z,99.90
2022-08-28T02:08:04.005Z,99.90
2022-08-28T02:10:33.910Z,99.90
2022-08-28T02:13:01.418Z,99.90
2022-08-28T02:15:30.975Z,99.90
2022-08-28T02:17:58.513Z,99.90
2022-08-28T02:20:25.976Z,99.90
2022-08-28T02:22:52.768Z,99.90
2022-08-28T02:25:19.823Z,99.90
2022-08-28T02:27:46.585Z,99.90
2022-08-28T02:30:15.482Z,99.90
2022-08-28T02:32:42.159Z,99.90
2022-08-28T02:35:13.338Z,99.90
2022-08-28T02:37:42.420Z,99.90
2022-08-28T02:40:10.400Z,99.90
2022-08-28T02:42:37.423Z,99.90
2022-08-28T02:45:04.434Z,99.90
2022-08-28T02:47:31.873Z,99.90
2022-08-28T02:49:58.595Z,99.90
2022-08-28T02:52:25.299Z,99.90
2022-08-28T02:54:52.001Z,99.90
2022-08-28T02:57:18.705Z,99.90
2022-08-28T02:59:45.533Z,99.90
2022-08-28T03:02:12.519Z,99.90
2022-08-28T03:04:39.380Z,99.90
2022-08-28T03:07:11.685Z,99.90
2022-08-28T03:09:38.406Z,99.90
2022-08-28T03:12:05.358Z,99.90
2022-08-28T03:14:32.034Z,99.90
2022-08-28T03:16:58.705Z,99.90
2022-08-28T03:19:25.343Z,99.90
2022-08-28T03:21:54.324Z,99.90
2022-08-28T03:24:21.205Z,99.90
2022-08-28T03:26:47.915Z,99.90
2022-08-28T03:29:14.617Z,99.90
2022-08-28T03:31:41.316Z,99.90
2022-08-28T03:34:08.085Z,99.90
2022-08-28T03:36:34.893Z,99.90
2022-08-28T03:39:04.587Z,99.90
2022-08-28T03:41:32.362Z,99.90
2022-08-28T03:44:00.588Z,99.90
2022-08-28T03:46:29.057Z,99.90
2022-08-28T03:48:56.016Z,99.90
2022-08-28T03:51:29.774Z,99.90
2022-08-28T03:53:58.461Z,99.90
2022-08-28T03:56:27.595Z,99.90
2022-08-28T03:58:58.039Z,99.90
2022-08-28T04:01:25.377Z,99.90
2022-08-28T04:03:52.182Z,99.90
2022-08-28T04:06:20.114Z,99.90
2022-08-28T04:08:47.648Z,99.90
2022-08-28T04:11:14.372Z,99.90
2022-08-28T04:13:41.981Z,99.90
2022-08-28T04:16:11.742Z,99.90
2022-08-28T04:18:40.895Z,99.90
2022-08-28T04:21:16.882Z,99.90
2022-08-28T04:23:44.984Z,99.90
2022-08-28T04:26:17.230Z,99.90
2022-08-28T04:28:44.091Z,99.90
2022-08-28T04:31:12.005Z,99.90
2022-08-28T04:33:39.714Z,99.90
2022-08-28T04:36:11.090Z,99.90
2022-08-28T04:38:43.713Z,99.90
2022-08-28T04:41:13.543Z,99.90
2022-08-28T04:43:40.515Z,99.90
2022-08-28T04:46:13.596Z,99.90
2022-08-28T04:48:41.871Z,99.90
2022-08-28T04:51:10.619Z,99.90
2022-08-28T04:53:38.633Z,99.90
2022-08-28T04:56:08.665Z,99.90
2022-08-28T04:58:36.231Z,99.90
2022-08-28T05:01:08.628Z,99.90
2022-08-28T05:03:35.505Z,99.90
2022-08-28T05:06:03.556Z,99.90
2022-08-28T05:08:31.320Z,99.90
2022-08-28T05:11:08.616Z,99.90
2022-08-28T05:13:35.265Z,99.90
2022-08-28T05:16:04.040Z,99.90
2022-08-28T05:18:30.783Z,99.80
2022-08-28T05:20:57.718Z,99.90
2022-08-28T05:23:26.258Z,99.90
2022-08-28T05:25:53.432Z,99.90
2022-08-28T05:28:20.248Z,99.90
2022-08-28T05:30:47.423Z,99.90
2022-08-28T05:33:15.146Z,99.90
2022-08-28T05:35:44.417Z,99.90
2022-08-28T05:38:13.454Z,99.90
2022-08-28T05:40:43.419Z,99.90
2022-08-28T05:43:11.477Z,99.90
2022-08-28T05:45:38.271Z,99.90
2022-08-28T05:48:05.245Z,99.90
2022-08-28T05:50:31.963Z,99.90
2022-08-28T05:52:58.625Z,99.90
2022-08-28T05:55:25.266Z,99.90
2022-08-28T05:57:51.902Z,99.60
2022-08-28T06:00:18.549Z,99.50
2022-08-28T06:02:45.311Z,99.60
2022-08-28T06:05:13.161Z,99.80
2022-08-28T06:07:40.955Z,99.20
2022-08-28T06:10:07.983Z,99.40
2022-08-28T06:12:37.671Z,99.20
2022-08-28T06:15:05.964Z,99.10
2022-08-28T06:17:32.672Z,98.90
2022-08-28T06:19:59.339Z,98.80
2022-08-28T06:22:25.980Z,99.00
2022-08-28T06:24:52.859Z,99.00
2022-08-28T06:27:19.666Z,98.60
2022-08-28T06:29:46.367Z,98.70
2022-08-28T06:32:13.265Z,98.70
2022-08-28T06:34:39.964Z,98.60
2022-08-28T06:37:06.642Z,98.50
2022-08-28T06:39:33.379Z,98.30
2022-08-28T06:42:00.103Z,98.50
2022-08-28T06:44:27.968Z,98.10
2022-08-28T06:46:54.848Z,98.00
2022-08-28T06:49:22.438Z,97.40
2022-08-28T06:51:49.647Z,97.30
2022-08-28T06:54:22.337Z,97.10
2022-08-28T06:56:49.946Z,97.00
2022-08-28T06:59:16.574Z,97.10
2022-08-28T07:01:43.353Z,96.80
2022-08-28T07:04:13.658Z,96.80
2022-08-28T07:06:46.811Z,96.70
2022-08-28T07:09:14.281Z,96.70
2022-08-28T07:11:43.591Z,96.20
2022-08-28T07:14:10.609Z,96.50
2022-08-28T07:16:38.939Z,95.90
2022-08-28T07:19:07.365Z,95.10
2022-08-28T07:21:38.650Z,94.90
2022-08-28T07:24:06.870Z,94.70
2022-08-28T07:26:34.099Z,94.60
2022-08-28T07:29:11.113Z,94.20
2022-08-28T07:31:41.699Z,94.20
2022-08-28T07:34:10.564Z,94.80
2022-08-28T07:36:38.080Z,94.90
2022-08-28T07:39:05.539Z,94.50
2022-08-28T07:41:35.394Z,94.50
2022-08-28T07:44:20.740Z,94.70
2022-08-28T07:46:47.498Z,93.70
2022-08-28T07:49:17.011Z,93.30
2022-08-28T07:51:44.029Z,93.70
2022-08-28T07:54:15.553Z,93.50
2022-08-28T07:56:45.692Z,93.20
2022-08-28T07:59:13.939Z,93.10
2022-08-28T08:01:46.414Z,93.10
2022-08-28T08:04:15.853Z,93.00
2022-08-28T08:06:43.481Z,93.00
2022-08-28T08:09:16.906Z,92.50
2022-08-28T08:11:43.972Z,92.60
2022-08-28T08:14:10.826Z,92.50
2022-08-28T08:16:40.623Z,92.70
2022-08-28T08:19:14.017Z,92.50
2022-08-28T08:21:43.303Z,92.60
2022-08-28T08:24:10.531Z,92.10
2022-08-28T08:26:59.813Z,92.00
2022-08-28T08:29:32.474Z,92.20
2022-08-28T08:32:05.864Z,92.40
2022-08-28T08:34:36.584Z,92.40
2022-08-28T08:37:04.600Z,92.20
2022-08-28T08:39:32.467Z,91.90
2022-08-28T08:42:02.169Z,92.00
2022-08-28T08:44:38.576Z,91.90
2022-08-28T08:47:14.605Z,92.00
2022-08-28T08:49:48.366Z,91.80
2022-08-28T08:52:59.687Z,91.80
2022-08-28T08:55:35.643Z,91.60
2022-08-28T08:58:19.598Z,91.00
2022-08-28T09:01:03.133Z,90.80
2022-08-28T09:03:44.111Z,90.50
2022-08-28T09:06:21.269Z,90.90
2022-08-28T09:08:52.568Z,91.00
2022-08-28T09:11:32.762Z,91.20
2022-08-28T09:14:44.395Z,91.60
2022-08-28T09:17:13.470Z,91.00
2022-08-28T09:19:40.137Z,91.00
2022-08-28T09:22:06.834Z,90.70
2022-08-28T09:24:36.884Z,89.60
2022-08-28T09:27:21.533Z,89.40
2022-08-28T09:30:07.539Z,89.80
2022-08-28T09:32:44.325Z,90.50
2022-08-28T09:35:28.050Z,90.50
2022-08-28T09:37:55.871Z,90.80
2022-08-28T09:40:49.928Z,89.70
2022-08-28T09:43:29.917Z,89.60
2022-08-28T09:46:21.222Z,89.70
2022-08-28T09:48:52.302Z,90.00
2022-08-28T09:51:21.864Z,90.00
2022-08-28T09:54:01.981Z,90.20
2022-08-28T09:56:36.895Z,89.30
2022-08-28T09:59:08.239Z,90.20
2022-08-28T10:01:45.127Z,90.00
2022-08-28T10:04:28.225Z,90.40
2022-08-28T10:07:03.973Z,90.70
2022-08-28T10:09:33.619Z,90.70
2022-08-28T10:12:11.504Z,90.80
2022-08-28T10:14:56.661Z,90.80
2022-08-28T10:17:29.281Z,91.20
2022-08-28T10:20:24.031Z,90.50
2022-08-28T10:23:17.026Z,90.00
2022-08-28T10:25:56.058Z,90.10
2022-08-28T10:28:47.500Z,90.00
2022-08-28T10:31:23.077Z,90.60
2022-08-28T10:34:11.152Z,90.60
2022-08-28T10:36:37.936Z,90.50
2022-08-28T10:39:22.051Z,90.50
2022-08-28T10:41:58.207Z,90.50
2022-08-28T10:44:36.376Z,90.90
2022-08-28T10:47:05.537Z,91.40
2022-08-28T10:49:36.941Z,91.20
2022-08-28T10:52:10.157Z,91.30
2022-08-28T10:54:40.842Z,91.60
2022-08-28T10:57:36.133Z,91.90
2022-08-28T11:00:19.486Z,91.90
2022-08-28T11:02:51.535Z,91.70
2022-08-28T11:05:24.498Z,91.80
2022-08-28T11:07:58.306Z,91.70
2022-08-28T11:10:36.831Z,91.80
2022-08-28T11:13:06.225Z,91.20
2022-08-28T11:15:37.162Z,91.00
2022-08-28T11:18:16.349Z,90.80
2022-08-28T11:20:56.732Z,90.60
2022-08-28T11:23:41.782Z,90.70
2022-08-28T11:26:11.082Z,90.00
2022-08-28T11:28:47.694Z,89.20
2022-08-28T11:31:24.662Z,89.60
2022-08-28T11:33:58.975Z,86.90
2022-08-28T11:36:28.006Z,85.60
2022-08-28T11:38:54.664Z,85.70
2022-08-28T11:41:27.414Z,85.20
2022-08-28T11:44:15.052Z,85.00
2022-08-28T11:46:47.586Z,85.10
2022-08-28T11:49:26.545Z,85.30
2022-08-28T11:52:18.274Z,84.70
2022-08-28T11:55:13.221Z,84.70
2022-08-28T11:57:54.171Z,86.00
2022-08-28T12:00:52.373Z,87.80
2022-08-28T12:03:36.394Z,88.70
2022-08-28T12:06:04.389Z,88.30
2022-08-28T12:08:51.115Z,87.50
2022-08-28T12:11:48.147Z,86.80
2022-08-28T12:14:27.116Z,85.30
2022-08-28T12:16:59.955Z,85.30
2022-08-28T12:19:41.556Z,84.90
2022-08-28T12:22:26.384Z,84.60
2022-08-28T12:24:58.011Z,84.70
2022-08-28T12:27:25.707Z,85.90
2022-08-28T12:29:58.705Z,85.00
2022-08-28T12:32:55.139Z,83.70
2022-08-28T12:35:26.338Z,83.50
2022-08-28T12:37:53.664Z,82.60
2022-08-28T12:40:20.526Z,82.30
2022-08-28T12:42:53.210Z,82.10
2022-08-28T12:45:49.863Z,81.10
2022-08-28T12:48:22.338Z,83.30
2022-08-28T12:50:59.581Z,84.00
2022-08-28T12:53:44.695Z,86.10
2022-08-28T12:56:13.068Z,87.50
2022-08-28T12:58:41.534Z,88.20
2022-08-28T13:01:20.435Z,88.20
2022-08-28T13:03:51.237Z,88.30
2022-08-28T13:06:29.079Z,89.30
2022-08-28T13:09:07.150Z,89.50
2022-08-28T13:11:37.952Z,89.60
2022-08-28T13:14:05.441Z,90.00
2022-08-28T13:16:37.642Z,90.00
2022-08-28T13:19:04.290Z,88.80
2022-08-28T13:21:51.838Z,89.20
2022-08-28T13:24:21.927Z,88.20
2022-08-28T13:26:58.788Z,88.90
2022-08-28T13:29:25.866Z,89.20
2022-08-28T13:32:05.800Z,89.10
2022-08-28T13:34:37.867Z,88.40
2022-08-28T13:37:14.726Z,88.20
2022-08-28T13:39:47.657Z,87.80
2022-08-28T13:42:16.934Z,86.80
2022-08-28T13:44:50.692Z,87.00
2022-08-28T13:47:17.705Z,86.70
2022-08-28T13:49:44.651Z,87.00
2022-08-28T13:52:12.231Z,87.10
2022-08-28T13:54:41.605Z,86.50
2022-08-28T13:57:10.731Z,86.50
2022-08-28T13:59:37.399Z,87.20
2022-08-28T14:02:25.332Z,85.90
2022-08-28T14:04:52.074Z,85.50
2022-08-28T14:07:18.854Z,85.40
2022-08-28T14:09:45.514Z,85.00
2022-08-28T14:12:12.581Z,84.90
2022-08-28T14:14:39.677Z,85.20
2022-08-28T14:17:07.932Z,86.00
2022-08-28T14:19:35.096Z,85.70
2022-08-28T14:22:02.196Z,85.70
2022-08-28T14:24:29.194Z,85.00
2022-08-28T14:26:56.034Z,84.90
2022-08-28T14:29:22.780Z,85.10
2022-08-28T14:31:50.374Z,85.30
2022-08-28T14:34:20.131Z,86.00
2022-08-28T14:36:50.867Z,85.50
2022-08-28T14:39:18.163Z,86.00
2022-08-28T14:41:46.986Z,84.80
2022-08-28T14:44:14.728Z,85.00
2022-08-28T14:46:44.264Z,84.70
2022-08-28T14:49:14.531Z,84.40
2022-08-28T14:51:43.060Z,84.00
2022-08-28T14:54:11.737Z,84.50
2022-08-28T14:56:38.439Z,83.60
2022-08-28T14:59:08.199Z,84.30
2022-08-28T15:01:40.439Z,84.30
2022-08-28T15:04:11.121Z,86.00
2022-08-28T15:06:38.449Z,86.90
2022-08-28T15:09:05.633Z,86.90
2022-08-28T15:11:32.364Z,87.10
2022-08-28T15:13:59.040Z,88.20
2022-08-28T15:16:32.570Z,88.30
2022-08-28T15:19:01.072Z,88.70
2022-08-28T15:21:39.902Z,89.50
2022-08-28T15:24:09.601Z,89.70
2022-08-28T15:26:37.287Z,89.90
2022-08-28T15:29:06.974Z,90.10
2022-08-28T15:31:37.009Z,90.60
2022-08-28T15:34:13.425Z,90.50
2022-08-28T15:36:43.689Z,90.40
2022-08-28T15:39:30.256Z,90.40
2022-08-28T15:41:57.871Z,90.50
2022-08-28T15:44:24.638Z,90.50
2022-08-28T15:46:57.674Z,90.50
2022-08-28T15:49:26.341Z,90.20
2022-08-28T15:51:53.526Z,90.00
2022-08-28T15:54:22.277Z,90.30
2022-08-28T15:56:52.691Z,89.90
2022-08-28T15:59:21.336Z,90.00
2022-08-28T16:01:50.414Z,90.00
2022-08-28T16:04:17.672Z,90.40
2022-08-28T16:06:48.235Z,90.30
2022-08-28T16:09:23.482Z,90.10
2022-08-28T16:11:50.148Z,89.00
2022-08-28T16:14:20.931Z,89.40
2022-08-28T16:16:49.158Z,89.50
2022-08-28T16:19:17.826Z,89.50
2022-08-28T16:21:44.464Z,90.10
2022-08-28T16:24:11.116Z,89.50
2022-08-28T16:26:37.767Z,89.30
2022-08-28T16:29:04.502Z,90.10
2022-08-28T16:31:33.864Z,90.00
2022-08-28T16:34:02.350Z,90.30
2022-08-28T16:36:30.039Z,90.50
2022-08-28T16:39:03.443Z,91.10
2022-08-28T16:41:31.894Z,90.90
2022-08-28T16:43:59.113Z,91.10
2022-08-28T16:46:27.283Z,91.30
2022-08-28T16:48:54.914Z,91.70
2022-08-28T16:51:22.227Z,91.80
2022-08-28T16:53:48.911Z,91.90
2022-08-28T16:56:17.559Z,92.30
2022-08-28T16:58:45.097Z,92.00
2022-08-28T17:01:12.827Z,92.40
2022-08-28T17:03:40.316Z,92.30
2022-08-28T17:06:11.770Z,92.50
2022-08-28T17:08:38.895Z,92.70
2022-08-28T17:11:06.547Z,93.10
2022-08-28T17:13:34.486Z,93.00
2022-08-28T17:16:01.524Z,93.00
2022-08-28T17:18:28.345Z,93.10
2022-08-28T17:21:13.577Z,93.40
2022-08-28T17:23:40.342Z,93.20
2022-08-28T17:26:07.014Z,93.00
2022-08-28T17:28:33.699Z,93.40
2022-08-28T17:31:01.006Z,93.10
2022-08-28T17:33:28.308Z,93.50
2022-08-28T17:35:55.680Z,93.60
2022-08-28T17:38:22.414Z,93.90
2022-08-28T17:40:49.067Z,93.90
2022-08-28T17:43:15.756Z,93.90
2022-08-28T17:45:42.454Z,94.10
2022-08-28T17:48:09.111Z,94.20
2022-08-28T17:50:35.916Z,94.30
2022-08-28T17:53:02.687Z,94.50
2022-08-28T17:55:29.371Z,94.60
2022-08-28T17:57:56.057Z,94.60
2022-08-28T18:00:22.849Z,94.90
2022-08-28T18:02:51.468Z,95.10
2022-08-28T18:05:18.574Z,95.20
2022-08-28T18:07:45.283Z,95.60
2022-08-28T18:10:12.573Z,95.30
2022-08-28T18:12:41.047Z,95.30
2022-08-28T18:15:12.144Z,95.30
2022-08-28T18:17:39.772Z,95.40
2022-08-28T18:20:10.807Z,95.40
2022-08-28T18:22:38.149Z,95.40
2022-08-28T18:25:06.136Z,95.50
2022-08-28T18:27:34.929Z,95.60
2022-08-28T18:30:01.771Z,95.50
2022-08-28T18:32:28.462Z,95.60
2022-08-28T18:34:55.265Z,95.70
2022-08-28T18:37:22.055Z,95.80
2022-08-28T18:39:48.753Z,95.80
2022-08-28T18:42:18.315Z,95.80
2022-08-28T18:44:44.968Z,95.90
2022-08-28T18:47:11.614Z,96.00
2022-08-28T18:49:38.382Z,96.10
2022-08-28T18:52:05.380Z,96.20
2022-08-28T18:54:32.062Z,96.00
2022-08-28T18:57:04.072Z,96.20
2022-08-28T18:59:32.598Z,96.60
2022-08-28T19:02:00.399Z,96.60
2022-08-28T19:04:27.268Z,96.80
2022-08-28T19:06:54.251Z,96.70
2022-08-28T19:09:21.050Z,96.70
2022-08-28T19:11:48.199Z,96.70
2022-08-28T19:14:14.868Z,96.60
2022-08-28T19:16:41.545Z,96.70
2022-08-28T19:19:09.006Z,96.70
2022-08-28T19:21:37.033Z,96.80
2022-08-28T19:24:04.718Z,96.90
2022-08-28T19:26:31.883Z,96.90
2022-08-28T19:28:58.542Z,97.20
2022-08-28T19:31:26.976Z,97.30
2022-08-28T19:33:54.204Z,97.50
2022-08-28T19:36:21.422Z,97.60
2022-08-28T19:38:48.145Z,97.60
2022-08-28T19:41:15.164Z,97.80
2022-08-28T19:43:42.929Z,97.90
2022-08-28T19:46:18.714Z,97.90
2022-08-28T19:48:52.023Z,97.90
2022-08-28T19:51:23.287Z,98.00
2022-08-28T19:53:57.150Z,97.90
2022-08-28T19:56:27.277Z,98.10
2022-08-28T19:58:56.493Z,98.20
2022-08-28T20:01:23.877Z,98.60
2022-08-28T20:03:50.642Z,98.70
2022-08-28T20:06:18.302Z,98.90
2022-08-28T20:08:44.959Z,99.10
2022-08-28T20:11:17.136Z,99.30
2022-08-28T20:13:44.023Z,99.50
2022-08-28T20:16:10.780Z,99.40
2022-08-28T20:18:37.537Z,99.60
2022-08-28T20:21:04.437Z,99.80
2022-08-28T20:23:31.118Z,99.90
2022-08-28T20:25:57.761Z,99.90
2022-08-28T20:28:24.586Z,99.90
2022-08-28T20:30:51.267Z,99.90
2022-08-28T20:33:17.942Z,99.90
2022-08-28T20:35:44.696Z,99.70
2022-08-28T20:38:11.784Z,99.90
2022-08-28T20:40:38.443Z,99.70
2022-08-28T20:43:06.510Z,99.40
2022-08-28T20:45:33.174Z,99.50
2022-08-28T20:47:59.818Z,99.50
2022-08-28T20:50:26.677Z,99.70
2022-08-28T20:52:53.370Z,99.70
2022-08-28T20:55:20.096Z,99.70
2022-08-28T20:57:46.775Z,99.90
2022-08-28T21:00:13.953Z,99.80
2022-08-28T21:02:40.941Z,99.80
2022-08-28T21:05:08.005Z,99.90
2022-08-28T21:07:35.209Z,99.90
2022-08-28T21:10:07.258Z,99.90
2022-08-28T21:12:39.916Z,99.90
2022-08-28T21:15:08.614Z,99.90
2022-08-28T21:17:35.286Z,99.90
2022-08-28T21:20:10.250Z,99.90
2022-08-28T21:22:37.610Z,99.90
2022-08-28T21:25:09.548Z,99.90
2022-08-28T21:27:37.310Z,99.90
2022-08-28T21:30:05.360Z,99.90
2022-08-28T21:32:34.117Z,99.90
2022-08-28T21:35:02.214Z,99.90
2022-08-28T21:37:29.078Z,99.90
2022-08-28T21:39:56.303Z,99.90
2022-08-28T21:42:23.441Z,99.90
2022-08-28T21:44:52.015Z,99.90
2022-08-28T21:47:21.351Z,99.90
2022-08-28T21:49:50.071Z,99.90
2022-08-28T21:52:18.327Z,99.90
2022-08-28T21:54:45.003Z,99.90
2022-08-28T21:57:11.678Z,99.90
2022-08-28T21:59:38.907Z,99.90
2022-08-28T22:02:06.374Z,99.90
2022-08-28T22:04:33.748Z,99.90
2022-08-28T22:07:00.736Z,99.90
2022-08-28T22:09:27.969Z,99.90
2022-08-28T22:11:54.664Z,99.90
2022-08-28T22:14:21.367Z,99.90
2022-08-28T22:16:48.088Z,99.90
2022-08-28T22:19:14.807Z,99.90
2022-08-28T22:22:00.181Z,99.90
2022-08-28T22:24:26.932Z,99.90
2022-08-28T22:26:57.368Z,99.90
2022-08-28T22:29:25.025Z,99.90
2022-08-28T22:31:52.539Z,99.90
2022-08-28T22:34:19.331Z,99.90
2022-08-28T22:36:46.023Z,99.90
2022-08-28T22:39:12.692Z,99.90
2022-08-28T22:41:39.547Z,99.90
2022-08-28T22:44:06.985Z,99.90
2022-08-28T22:46:33.657Z,99.90
2022-08-28T22:49:00.333Z,99.90
2022-08-28T22:51:27.124Z,99.90
2022-08-28T22:53:54.402Z,99.90
2022-08-28T22:56:21.420Z,99.90
2022-08-28T22:58:48.112Z,99.90
2022-08-28T23:01:19.205Z,99.90
2022-08-28T23:03:46.890Z,99.90
2022-08-28T23:09:24.902Z,99.90
2022-08-28T23:11:51.631Z,99.90
2022-08-28T23:14:18.259Z,99.90
2022-08-28T23:16:45.102Z,99.90
2022-08-28T23:19:13.402Z,99.90
2022-08-28T23:21:44.182Z,99.90
2022-08-28T23:24:12.537Z,99.90
2022-08-28T23:26:39.375Z,99.90
2022-08-28T23:29:06.114Z,99.90
2022-08-28T23:31:32.976Z,99.90
2022-08-28T23:33:59.749Z,99.90
2022-08-28T23:36:26.589Z,99.90
2022-08-28T23:38:53.326Z,99.90
2022-08-28T23:41:20.107Z,99.90
2022-08-28T23:43:47.305Z,99.90
2022-08-28T23:46:17.537Z,99.90
2022-08-28T23:48:45.441Z,99.90
2022-08-28T23:51:16.347Z,99.90
2022-08-28T23:53:43.970Z,99.90
2022-08-28T23:56:11.369Z,99.90
2022-08-28T23:58:39.965Z,99.90
